Time;durP1;ratioP1;P1;durP2;ratioP2;P2;SDS_P1;SDS_P2;PMS_P1;PMS_P2;Temp;Humidity;BMP_temperature;BMP_pressure;BME280_temperature;BME280_humidity;BME280_pressure;Samples;Min_cycle;Max_cycle;Signal;HPM_P1;HPM_P2
2022/03/24 00:00:44;;;;;;;;;52.75;41.00;;;;;11.07;45.39;102646.00;2448698;27;44728;-84
2022/03/24 00:01:55;;;;;;;;;50.50;40.75;;;;;11.08;45.38;102648.66;2451595;27;45227;-85
2022/03/24 00:03:06;;;;;;;;;51.00;40.25;;;;;11.07;44.97;102648.63;2442473;28;45599;-87
2022/03/24 00:04:16;;;;;;;;;51.75;40.00;;;;;11.05;45.53;102650.41;2446868;28;45459;-87
2022/03/24 00:05:27;;;;;;;;;56.00;43.25;;;;;11.05;45.53;102642.50;2451550;27;45413;-87
2022/03/24 00:06:37;;;;;;;;;50.00;41.00;;;;;11.03;45.36;102651.31;2451212;27;45476;-87
2022/03/24 00:07:48;;;;;;;;;49.50;41.00;;;;;11.05;45.13;102650.41;2448014;27;45152;-87
2022/03/24 00:08:59;;;;;;;;;52.00;43.00;;;;;11.03;45.27;102646.03;2441970;28;45982;-87
2022/03/24 00:10:09;;;;;;;;;51.00;41.50;;;;;11.03;45.30;102653.94;2442178;28;45288;-87
2022/03/24 00:11:20;;;;;;;;;55.00;43.50;;;;;11.02;45.12;102646.03;2451191;28;46489;-87
2022/03/24 00:12:32;;;;;;;;;51.25;39.25;;;;;11.01;45.08;102642.53;2444589;27;45234;-87
2022/03/24 00:13:42;;;;;;;;;49.75;41.00;;;;;10.98;45.35;102631.16;2445182;28;47362;-87
2022/03/24 00:14:53;;;;;;;;;54.50;43.25;;;;;10.98;45.91;102636.41;2441381;28;45248;-87
2022/03/24 00:16:04;;;;;;;;;54.75;41.50;;;;;10.98;45.57;102634.66;2447330;27;48111;-83
2022/03/24 00:17:14;;;;;;;;;52.00;40.50;;;;;10.96;45.35;102632.91;2449297;27;45437;-83
2022/03/24 00:18:25;;;;;;;;;52.50;41.00;;;;;10.99;45.62;102640.78;2444694;28;46165;-83
2022/03/24 00:19:35;;;;;;;;;53.75;42.00;;;;;10.95;45.52;102634.66;2443187;28;44782;-83
2022/03/24 00:20:46;;;;;;;;;49.50;39.25;;;;;10.94;45.49;102637.31;2441790;28;45397;-81
2022/03/24 00:21:57;;;;;;;;;48.75;39.75;;;;;10.94;45.53;102642.56;2442305;28;45397;-85
2022/03/24 00:23:09;;;;;;;;;50.75;40.50;;;;;10.93;45.54;102639.06;2450963;28;45292;-82
2022/03/24 00:24:20;;;;;;;;;52.00;40.50;;;;;10.93;45.69;102641.69;2443229;27;45421;-83
2022/03/24 00:25:30;;;;;;;;;50.00;41.50;;;;;10.91;45.57;102641.69;2442500;28;45474;-86
2022/03/24 00:26:41;;;;;;;;;51.25;42.00;;;;;10.88;45.62;102639.09;2451692;27;45302;-86
2022/03/24 00:27:51;;;;;;;;;49.25;39.25;;;;;10.88;45.94;102638.19;2443565;27;46521;-86
2022/03/24 00:29:02;;;;;;;;;54.00;40.00;;;;;10.88;45.63;102646.09;2445308;28;45202;-86
2022/03/24 00:30:13;;;;;;;;;51.50;39.50;;;;;10.84;45.68;102636.47;2440660;28;46953;-86
2022/03/24 00:31:23;;;;;;;;;54.75;41.50;;;;;10.85;45.88;102641.72;2441198;28;44633;-86
2022/03/24 00:32:35;;;;;;;;;51.25;39.25;;;;;10.83;45.87;102642.59;2441572;28;45542;-87
2022/03/24 00:33:45;;;;;;;;;48.75;39.25;;;;;10.82;45.98;102640.84;2441538;28;45506;-86
2022/03/24 00:34:56;;;;;;;;;52.00;39.75;;;;;10.80;46.28;102638.22;2441035;28;46294;-87
2022/03/24 00:36:09;;;;;;;;;50.00;40.00;;;;;10.80;46.09;102641.72;2446166;28;45480;-87
2022/03/24 00:37:20;;;;;;;;;49.75;38.00;;;;;10.78;45.92;102638.25;2450384;28;47200;-87
2022/03/24 00:38:30;;;;;;;;;53.00;41.25;;;;;10.81;46.00;102645.25;2447098;28;45424;-87
2022/03/24 00:39:41;;;;;;;;;48.00;39.25;;;;;10.81;45.50;102645.25;2451205;28;45388;-87
2022/03/24 00:40:51;;;;;;;;;45.25;36.25;;;;;10.78;46.01;102639.97;2451327;28;44703;-87
2022/03/24 00:42:10;;;;;;;;;52.25;40.50;;;;;10.78;45.72;102637.34;2451280;27;45342;-87
2022/03/24 00:43:20;;;;;;;;;52.50;39.75;;;;;10.78;45.83;102638.25;2449769;27;45452;-88
2022/03/24 00:44:32;;;;;;;;;48.75;38.75;;;;;10.76;45.95;102629.47;2450171;28;46882;-87
2022/03/24 00:45:42;;;;;;;;;49.00;39.50;;;;;10.76;45.61;102639.13;2447966;28;45273;-88
2022/03/24 00:46:53;;;;;;;;;51.50;39.50;;;;;10.76;45.82;102636.50;2441556;28;45197;-89
2022/03/24 00:48:04;;;;;;;;;47.50;38.50;;;;;10.73;46.01;102629.47;2441505;28;45413;-89
2022/03/24 00:49:15;;;;;;;;;45.75;36.75;;;;;10.75;46.06;102634.72;2441398;28;46287;-89
2022/03/24 00:50:25;;;;;;;;;51.25;39.50;;;;;10.73;45.86;102628.59;2441481;28;45334;-87
2022/03/24 00:51:36;;;;;;;;;47.50;38.75;;;;;10.72;45.76;102626.88;2441153;28;46589;-87
2022/03/24 00:52:46;;;;;;;;;49.75;40.75;;;;;10.72;45.79;102627.72;2442592;28;44769;-87
2022/03/24 00:53:56;;;;;;;;;51.00;38.75;;;;;10.72;46.08;102630.34;2447671;27;45353;-87
2022/03/24 00:55:18;;;;;;;;;50.75;40.00;;;;;10.73;46.29;102623.34;2444052;28;45333;-86
2022/03/24 00:56:28;;;;;;;;;45.50;36.75;;;;;10.69;45.79;102625.97;2441502;28;45802;-90
2022/03/24 00:57:40;;;;;;;;;49.50;39.75;;;;;10.70;45.58;102621.59;2457111;27;44742;-90
2022/03/24 00:58:50;;;;;;;;;44.00;36.00;;;;;10.71;46.36;102631.25;2447482;28;47188;-90
2022/03/24 01:00:01;;;;;;;;;51.00;40.25;;;;;10.69;46.19;102620.72;2441140;28;45374;-90
2022/03/24 01:01:12;;;;;;;;;48.50;39.00;;;;;10.70;46.28;102624.22;2441248;28;45216;-90
2022/03/24 01:02:25;;;;;;;;;48.75;39.50;;;;;10.67;46.14;102622.47;2441470;28;45337;-89
2022/03/24 01:03:36;;;;;;;;;48.75;39.25;;;;;10.69;46.21;102622.50;2441661;28;47147;-90
2022/03/24 01:04:46;;;;;;;;;48.25;38.75;;;;;10.68;46.05;102623.34;2441000;28;44728;-90
2022/03/24 01:05:57;;;;;;;;;47.00;39.50;;;;;10.67;45.97;102624.22;2444825;28;45485;-90
2022/03/24 01:07:07;;;;;;;;;48.25;38.75;;;;;10.66;45.97;102619.84;2440390;28;45492;-89
2022/03/24 01:08:19;;;;;;;;;50.50;39.25;;;;;10.65;46.56;102621.59;2451784;27;46816;-90
2022/03/24 01:09:30;;;;;;;;;48.25;38.00;;;;;10.65;46.21;102626.00;2452503;27;45358;-90
2022/03/24 01:10:41;;;;;;;;;50.25;40.75;;;;;10.64;46.04;102619.00;2443161;28;47165;-89
2022/03/24 01:11:51;;;;;;;;;48.00;38.00;;;;;10.63;46.54;102625.13;2434080;28;45532;-89
2022/03/24 01:13:02;;;;;;;;;48.75;39.00;;;;;10.60;46.37;102620.75;2444165;28;46248;-81
2022/03/24 01:14:16;;;;;;;;;50.50;39.25;;;;;10.59;46.03;102619.00;2447691;28;45343;-81
2022/03/24 01:15:28;;;;;;;;;47.00;35.75;;;;;10.59;46.47;102619.00;2441308;28;46514;-82
2022/03/24 01:16:38;;;;;;;;;50.00;40.00;;;;;10.57;46.21;102619.00;2457633;27;45443;-83
2022/03/24 01:17:49;;;;;;;;;49.00;38.00;;;;;10.57;46.02;102615.47;2452228;27;46693;-82
2022/03/24 01:18:59;;;;;;;;;46.00;37.75;;;;;10.56;46.50;102616.38;2441274;28;45203;-82
2022/03/24 01:20:11;;;;;;;;;48.00;37.75;;;;;10.54;46.13;102613.75;2441112;28;45363;-82
2022/03/24 01:21:21;;;;;;;;;46.25;37.00;;;;;10.53;46.29;102614.63;2441014;28;45165;-82
2022/03/24 01:22:31;;;;;;;;;48.75;39.25;;;;;10.51;46.00;102613.78;2441204;28;46252;-82
2022/03/24 01:23:46;;;;;;;;;46.25;37.25;;;;;10.54;46.46;102621.63;2451270;27;44572;-82
2022/03/24 01:24:56;;;;;;;;;50.25;39.00;;;;;10.51;46.36;102616.41;2442250;27;46719;-82
2022/03/24 01:26:07;;;;;;;;;48.25;38.25;;;;;10.52;46.28;102619.91;2441365;28;44771;-82
2022/03/24 01:27:18;;;;;;;;;51.00;39.25;;;;;10.49;46.11;102615.50;2441172;28;45448;-82
2022/03/24 01:28:29;;;;;;;;;49.75;37.75;;;;;10.47;46.79;102611.97;2441260;28;45357;-86
2022/03/24 01:29:39;;;;;;;;;47.50;39.50;;;;;10.46;46.41;102610.25;2446426;28;46028;-84
2022/03/24 01:30:50;;;;;;;;;52.25;42.75;;;;;10.46;46.62;102626.00;2449765;28;45418;-83
2022/03/24 01:32:00;;;;;;;;;50.50;41.00;;;;;10.46;46.41;102612.88;2441175;28;46284;-84
2022/03/24 01:33:11;;;;;;;;;49.25;38.00;;;;;10.43;46.78;102613.75;2445927;28;45323;-83
2022/03/24 01:34:21;;;;;;;;;45.75;38.25;;;;;10.44;46.70;102612.00;2448747;28;47140;-83
2022/03/24 01:35:31;;;;;;;;;52.50;38.75;;;;;10.43;46.78;102618.13;2440765;28;45292;-83
2022/03/24 01:36:42;;;;;;;;;47.25;38.50;;;;;10.40;46.80;102620.75;2439910;28;47528;-83
2022/03/24 01:37:52;;;;;;;;;48.00;38.25;;;;;10.38;46.85;102612.00;2440860;28;44535;-83
2022/03/24 01:39:03;;;;;;;;;46.25;37.00;;;;;10.38;46.66;102617.25;2441140;28;45353;-83
2022/03/24 01:40:14;;;;;;;;;46.50;36.75;;;;;10.37;46.83;102616.38;2440456;28;45299;-83
2022/03/24 01:41:24;;;;;;;;;44.50;37.75;;;;;10.35;46.41;102613.75;2445717;28;45249;-83
2022/03/24 01:42:35;;;;;;;;;45.50;36.00;;;;;10.34;47.06;102612.03;2448787;27;45208;-83
2022/03/24 01:43:45;;;;;;;;;38.00;32.75;;;;;10.32;46.79;102613.75;2450928;27;45375;-83
2022/03/24 01:44:56;;;;;;;;;52.75;40.00;;;;;10.30;47.12;102607.63;2447671;27;45433;-83
2022/03/24 01:46:07;;;;;;;;;50.25;38.50;;;;;10.32;46.56;102613.75;2449869;28;46423;-83
2022/03/24 01:47:18;;;;;;;;;46.25;36.25;;;;;10.29;47.21;102611.16;2447727;28;45270;-83
2022/03/24 01:48:28;;;;;;;;;44.00;36.00;;;;;10.30;46.95;102607.63;2441026;28;45518;-83
2022/03/24 01:49:42;;;;;;;;;18.25;12.75;;;;;10.27;47.10;102605.03;2441539;28;45409;-83
2022/03/24 01:50:53;;;;;;;;;46.00;38.25;;;;;10.27;46.90;102605.03;2441032;28;45511;-83
2022/03/24 01:52:12;;;;;;;;;45.75;38.00;;;;;10.24;46.59;102603.28;2440277;28;44679;-84
2022/03/24 01:53:22;;;;;;;;;48.00;38.50;;;;;10.23;47.46;102600.63;2447060;28;46063;-83
2022/03/24 01:54:36;;;;;;;;;52.25;39.00;;;;;10.22;46.93;102601.53;2446497;27;45207;-83
2022/03/24 01:55:48;;;;;;;;;51.25;37.50;;;;;10.22;47.23;102606.78;2440901;28;45311;-83
2022/03/24 01:56:59;;;;;;;;;46.00;38.75;;;;;10.21;46.79;102608.53;2441071;28;45149;-83
2022/03/24 01:58:11;;;;;;;;;48.00;38.75;;;;;10.19;46.97;102601.53;2441267;28;45435;-83
2022/03/24 01:59:22;;;;;;;;;44.50;37.00;;;;;10.15;47.61;102602.41;2441104;28;45158;-83
2022/03/24 02:00:33;;;;;;;;;46.50;35.75;;;;;10.17;47.23;102603.28;2441053;28;45283;-83
2022/03/24 02:01:44;;;;;;;;;49.00;39.00;;;;;10.17;47.26;102604.16;2447078;28;44724;-83
2022/03/24 02:02:57;;;;;;;;;52.00;41.00;;;;;10.12;47.90;102598.88;2446165;27;45383;-83
2022/03/24 02:04:08;;;;;;;;;50.50;38.25;;;;;10.14;47.46;102596.28;2441016;28;45444;-83
2022/03/24 02:05:19;;;;;;;;;48.25;37.75;;;;;10.12;47.19;102598.88;2441123;28;46193;-82
2022/03/24 02:06:33;;;;;;;;;50.25;40.00;;;;;10.12;47.59;102595.41;2444364;28;45535;-82
2022/03/24 02:07:44;;;;;;;;;46.75;36.25;;;;;10.11;47.64;102593.66;2448528;27;46342;-81
2022/03/24 02:08:55;;;;;;;;;50.25;40.00;;;;;10.11;47.80;102602.41;2441048;28;45288;-82
2022/03/24 02:10:08;;;;;;;;;43.25;35.50;;;;;10.08;47.28;102593.63;2447282;28;46094;-82
2022/03/24 02:11:20;;;;;;;;;46.75;36.75;;;;;10.06;46.85;102596.28;2450019;28;45532;-82
2022/03/24 02:12:30;;;;;;;;;46.75;36.00;;;;;10.05;47.38;102591.03;2449760;28;47422;-82
2022/03/24 02:13:40;;;;;;;;;46.75;36.00;;;;;10.04;47.73;102589.28;2449949;28;45299;-82
2022/03/24 02:14:51;;;;;;;;;51.00;38.75;;;;;10.03;47.28;102591.03;2445591;28;46047;-82
2022/03/24 02:16:10;;;;;;;;;48.50;39.50;;;;;10.01;47.39;102588.41;2452721;27;45383;-83
2022/03/24 02:17:22;;;;;;;;;50.25;39.25;;;;;10.01;47.44;102591.03;2446839;27;45460;-82
2022/03/24 02:18:34;;;;;;;;;52.25;39.00;;;;;9.99;47.46;102586.66;2441056;28;45426;-83
2022/03/24 02:19:45;;;;;;;;;47.75;38.25;;;;;9.97;47.92;102585.78;2440811;28;46242;-83
2022/03/24 02:20:55;;;;;;;;;52.00;41.25;;;;;9.97;48.10;102588.41;2441034;28;44583;-82
2022/03/24 02:22:09;;;;;;;;;44.75;38.50;;;;;9.99;47.81;102597.16;2443078;28;45268;-83
2022/03/24 02:23:20;;;;;;;;;47.00;38.25;;;;;9.96;47.80;102587.53;2440884;28;45311;-83
2022/03/24 02:24:31;;;;;;;;;48.00;38.00;;;;;9.95;47.58;102592.78;2441189;27;46270;-82
2022/03/24 02:25:43;;;;;;;;;51.50;37.25;;;;;9.91;48.33;102589.28;2441103;28;44632;-82
2022/03/24 02:26:54;;;;;;;;;46.75;37.50;;;;;9.92;47.97;102590.16;2440602;28;46191;-83
2022/03/24 02:28:04;;;;;;;;;52.25;39.00;;;;;9.88;47.84;102590.16;2440939;28;45224;-82
2022/03/24 02:29:16;;;;;;;;;47.25;38.00;;;;;9.89;48.16;102602.44;2449796;27;47651;-83
2022/03/24 02:30:29;;;;;;;;;46.50;37.50;;;;;9.87;48.40;102596.31;2440984;28;45464;-83
2022/03/24 02:31:43;;;;;;;;;45.50;37.50;;;;;9.86;47.72;102594.53;2447294;28;46343;-82
2022/03/24 02:32:53;;;;;;;;;50.00;38.00;;;;;9.84;48.09;102596.28;2450689;27;45224;-82
2022/03/24 02:35:34;;;;;;;;;49.50;39.75;;;;;9.83;47.96;102589.28;2440776;28;45200;-85
2022/03/24 02:36:44;;;;;;;;;47.50;38.75;;;;;9.82;47.87;102595.41;2440776;28;45498;-83
2022/03/24 02:37:55;;;;;;;;;50.25;39.50;;;;;9.81;48.59;102588.41;2441149;28;45204;-83
2022/03/24 02:39:06;;;;;;;;;47.75;37.50;;;;;9.78;48.33;102584.03;2444909;28;45464;-84
2022/03/24 02:40:16;;;;;;;;;51.50;39.75;;;;;9.78;48.42;102591.91;2440936;28;45433;-84
2022/03/24 02:41:27;;;;;;;;;49.50;38.25;;;;;9.79;48.29;102592.78;2445111;28;45341;-84
2022/03/24 02:42:38;;;;;;;;;44.50;35.75;;;;;9.76;48.20;102592.78;2448901;27;45317;-84
2022/03/24 02:43:48;;;;;;;;;49.50;38.75;;;;;9.75;48.15;102585.78;2439883;28;47191;-85
2022/03/24 02:45:04;;;;;;;;;50.00;37.75;;;;;9.76;47.95;102588.41;2448096;28;45283;-84
2022/03/24 02:46:14;;;;;;;;;48.75;38.25;;;;;9.74;48.59;102591.91;2450430;27;46215;-84
2022/03/24 02:47:25;;;;;;;;;46.25;37.50;;;;;9.73;48.98;102595.41;2450615;27;44603;-84
2022/03/24 02:48:35;;;;;;;;;48.50;37.00;;;;;9.70;48.73;102588.41;2446869;28;46379;-84
2022/03/24 02:49:48;;;;;;;;;50.00;37.25;;;;;9.67;49.05;102589.28;2447012;28;44704;-84
2022/03/24 02:50:59;;;;;;;;;48.50;39.00;;;;;9.70;48.86;102598.91;2446142;28;45662;-85
2022/03/24 02:52:10;;;;;;;;;44.25;37.00;;;;;9.68;48.26;102596.28;2441631;28;45495;-85
2022/03/24 02:53:21;;;;;;;;;43.75;35.75;;;;;9.66;48.53;102598.03;2440638;28;46335;-85
2022/03/24 02:54:32;;;;;;;;;46.00;36.00;;;;;9.65;48.55;102600.66;2440805;28;44891;-86
2022/03/24 02:55:42;;;;;;;;;49.25;39.50;;;;;9.63;48.75;102598.00;2439857;28;47394;-86
2022/03/24 02:56:53;;;;;;;;;49.50;37.75;;;;;9.64;48.96;102594.53;2449423;28;44650;-86
2022/03/24 02:58:03;;;;;;;;;47.75;38.00;;;;;9.62;48.81;102595.41;2445930;27;45594;-86
2022/03/24 02:59:15;;;;;;;;;47.50;36.25;;;;;9.62;48.59;102598.91;2447670;28;45572;-86
2022/03/24 03:00:27;;;;;;;;;43.00;33.75;;;;;9.59;49.01;102598.00;2442389;28;45401;-82
2022/03/24 03:01:44;;;;;;;;;46.50;36.75;;;;;9.59;49.27;102606.78;2442454;28;44821;-87
2022/03/24 03:02:54;;;;;;;;;45.50;37.00;;;;;9.57;49.28;102598.03;2442330;28;45311;-87
2022/03/24 03:04:07;;;;;;;;;44.00;36.00;;;;;9.56;48.98;102606.75;2441641;28;44640;-84
2022/03/24 03:05:19;;;;;;;;;52.00;39.75;;;;;9.55;48.92;102598.03;2443722;28;46991;-85
2022/03/24 03:06:29;;;;;;;;;47.75;37.00;;;;;9.55;48.98;102603.28;2445950;28;44709;-88
2022/03/24 03:07:40;;;;;;;;;46.50;37.00;;;;;9.55;49.01;102605.03;2451034;28;47382;-88
2022/03/24 03:08:50;;;;;;;;;46.00;37.00;;;;;9.54;48.79;102603.25;2442238;28;45350;-88
2022/03/24 03:10:00;;;;;;;;;49.50;39.00;;;;;9.53;49.05;102604.16;2451541;28;46568;-88
2022/03/24 03:11:11;;;;;;;;;40.75;34.00;;;;;9.50;49.13;102601.50;2452039;27;45436;-87
2022/03/24 03:12:22;;;;;;;;;46.50;36.50;;;;;9.48;49.54;102596.28;2447437;27;46275;-88
2022/03/24 03:13:34;;;;;;;;;46.50;36.50;;;;;9.47;49.46;102601.50;2447886;28;45446;-85
2022/03/24 03:14:48;;;;;;;;;46.50;36.75;;;;;9.48;49.20;102603.25;2442308;28;45277;-89
2022/03/24 03:15:58;;;;;;;;;45.50;35.25;;;;;9.44;49.36;102598.00;2443666;27;45506;-83
2022/03/24 03:17:09;;;;;;;;;51.50;38.75;;;;;9.45;49.36;102599.78;2442456;28;46453;-88
2022/03/24 03:18:19;;;;;;;;;40.50;34.00;;;;;9.43;49.54;102596.25;2442269;28;45353;-88
2022/03/24 03:19:30;;;;;;;;;51.50;38.25;;;;;9.41;49.62;102595.38;2444349;27;45442;-89
2022/03/24 03:20:40;;;;;;;;;33.00;29.00;;;;;9.42;49.07;102602.38;2441262;28;45331;-89
2022/03/24 03:21:51;;;;;;;;;48.00;36.75;;;;;9.42;49.91;102609.38;2441301;28;46618;-89
2022/03/24 03:23:03;;;;;;;;;48.00;38.75;;;;;9.39;49.68;102604.09;2442226;28;44738;-89
2022/03/24 03:24:14;;;;;;;;;46.25;36.75;;;;;9.38;49.83;102599.75;2447552;28;47052;-89
2022/03/24 03:25:24;;;;;;;;;47.00;37.50;;;;;9.36;49.89;102596.25;2451307;27;45338;-89
2022/03/24 03:26:35;;;;;;;;;48.25;38.75;;;;;9.35;49.48;102603.25;2448942;27;45352;-89
2022/03/24 03:27:46;;;;;;;;;49.25;39.75;;;;;9.34;49.76;102596.22;2442287;28;45232;-89
2022/03/24 03:28:56;;;;;;;;;51.25;38.25;;;;;9.36;50.07;102601.50;2442202;28;45281;-89
2022/03/24 03:30:07;;;;;;;;;49.25;37.00;;;;;9.33;49.65;102597.13;2442263;28;45330;-89
2022/03/24 03:31:17;;;;;;;;;45.00;38.00;;;;;9.33;49.42;102602.38;2441913;28;47846;-89
2022/03/24 03:32:28;;;;;;;;;46.25;36.00;;;;;9.34;49.63;102598.84;2445723;28;45290;-90
2022/03/24 03:33:38;;;;;;;;;47.25;37.25;;;;;9.34;49.75;102601.47;2450924;28;45322;-89
2022/03/24 03:34:49;;;;;;;;;49.50;38.00;;;;;9.30;49.27;102602.34;2442127;28;45421;-89
2022/03/24 03:36:00;;;;;;;;;48.25;36.75;;;;;9.29;49.92;102603.22;2443422;28;47274;-89
2022/03/24 03:37:11;;;;;;;;;51.00;38.25;;;;;9.29;49.77;102601.47;2434122;28;45367;-89
2022/03/24 03:38:22;;;;;;;;;48.00;36.50;;;;;9.28;49.79;102604.09;2441488;28;45495;-89
2022/03/24 03:39:32;;;;;;;;;45.25;35.50;;;;;9.26;49.50;102603.22;2442288;28;45276;-87
2022/03/24 03:40:43;;;;;;;;;47.25;38.75;;;;;9.23;49.97;102602.31;2441870;28;45273;-87
2022/03/24 03:41:54;;;;;;;;;41.50;36.25;;;;;9.23;50.07;102602.31;2441992;28;45229;-87
2022/03/24 03:43:04;;;;;;;;;49.50;39.50;;;;;9.22;50.32;102605.81;2441370;28;47878;-90
2022/03/24 03:44:15;;;;;;;;;49.75;39.25;;;;;9.20;49.63;102601.44;2450035;28;44767;-91
2022/03/24 03:45:26;;;;;;;;;46.50;38.50;;;;;9.21;49.60;102611.09;2451210;28;48065;-91
2022/03/24 03:46:37;;;;;;;;;43.25;34.25;;;;;9.18;49.89;102601.44;2440757;28;45505;-91
2022/03/24 03:47:47;;;;;;;;;50.50;37.50;;;;;9.20;50.05;102602.31;2434571;28;47209;-91
2022/03/24 03:48:58;;;;;;;;;47.50;37.25;;;;;9.17;49.74;102604.94;2448553;28;44636;-91
2022/03/24 03:50:09;;;;;;;;;48.00;37.50;;;;;9.17;50.27;102599.69;2442440;27;46072;-90
2022/03/24 03:51:19;;;;;;;;;50.00;38.25;;;;;9.16;50.33;102600.53;2440974;28;45256;-87
2022/03/24 03:52:29;;;;;;;;;46.00;38.50;;;;;9.17;50.36;102604.94;2435959;28;47094;-88
2022/03/24 03:53:40;;;;;;;;;46.75;37.25;;;;;9.14;50.39;102594.41;2448623;28;45451;-87
2022/03/24 03:54:50;;;;;;;;;44.50;37.75;;;;;9.14;49.83;102601.41;2449860;28;46017;-87
2022/03/24 03:56:02;;;;;;;;;50.00;39.75;;;;;9.11;50.42;102605.78;2448123;27;45483;-87
2022/03/24 03:57:12;;;;;;;;;25.75;17.00;;;;;9.11;50.56;102602.31;2442044;28;45310;-85
2022/03/24 03:58:23;;;;;;;;;45.50;36.75;;;;;9.09;50.38;102601.41;2447556;28;45430;-85
2022/03/24 03:59:33;;;;;;;;;49.00;39.25;;;;;9.06;49.93;102590.91;2441269;28;46517;-86
2022/03/24 04:00:52;;;;;;;;;47.75;37.75;;;;;9.06;50.53;102596.16;2443241;28;45212;-86
2022/03/24 04:02:03;;;;;;;;;45.75;36.50;;;;;9.06;50.27;102596.16;2452170;27;46271;-94
2022/03/24 04:03:13;;;;;;;;;48.50;38.00;;;;;9.03;50.36;102596.16;2452507;27;45169;-94
2022/03/24 04:04:24;;;;;;;;;46.50;37.50;;;;;9.00;50.58;102592.66;2451298;28;45574;-93
2022/03/24 04:05:34;;;;;;;;;43.00;36.25;;;;;8.98;50.56;102589.16;2450818;28;45172;-90
2022/03/24 04:06:45;;;;;;;;;45.25;34.25;;;;;8.97;50.45;102590.00;2447883;28;45270;-90
2022/03/24 04:07:56;;;;;;;;;48.25;37.00;;;;;8.98;51.09;102602.25;2446291;28;45217;-89
2022/03/24 04:09:07;;;;;;;;;48.00;36.00;;;;;8.96;50.44;102590.84;2450050;27;45259;-94
2022/03/24 04:10:17;;;;;;;;;48.75;37.00;;;;;8.94;50.86;102592.59;2441985;28;44661;-90
2022/03/24 04:11:28;;;;;;;;;48.25;37.50;;;;;8.98;51.14;102601.38;2444183;28;45445;-90
2022/03/24 04:12:38;;;;;;;;;43.00;36.50;;;;;8.94;50.88;102595.22;2444961;28;45202;-90
2022/03/24 04:13:49;;;;;;;;;46.00;37.00;;;;;8.95;50.51;102594.38;2450567;28;47891;-90
2022/03/24 04:14:59;;;;;;;;;46.00;36.75;;;;;8.91;50.79;102592.63;2434789;28;44776;-91
2022/03/24 04:16:13;;;;;;;;;47.25;35.00;;;;;8.89;50.92;102591.72;2451048;27;45161;-96
2022/03/24 04:17:23;;;;;;;;;40.25;33.25;;;;;8.86;50.76;102595.22;2459713;28;44523;-96
2022/03/24 04:18:34;;;;;;;;;47.25;36.75;;;;;8.87;51.02;102588.22;2463266;27;47476;-89
2022/03/24 04:19:44;;;;;;;;;46.75;36.50;;;;;8.86;51.22;102587.34;2448315;28;45291;-88
2022/03/24 04:20:56;;;;;;;;;49.75;36.75;;;;;8.86;51.11;102595.22;2442844;28;45319;-86
2022/03/24 04:22:06;;;;;;;;;38.75;33.75;;;;;8.85;51.09;102598.69;2450579;28;45308;-87
2022/03/24 04:23:19;;;;;;;;;49.75;38.75;;;;;8.86;51.62;102596.97;2450822;28;46100;-88
2022/03/24 04:24:29;;;;;;;;;45.50;36.75;;;;;8.84;51.63;102593.47;2450639;27;45296;-88
2022/03/24 04:25:40;;;;;;;;;46.25;38.25;;;;;8.82;51.04;102598.69;2446689;27;46101;-89
2022/03/24 04:26:50;;;;;;;;;49.00;37.50;;;;;8.84;51.39;102596.94;2442852;28;45444;-89
2022/03/24 04:28:03;;;;;;;;;49.25;37.75;;;;;8.81;51.44;102594.31;2444476;27;45335;-89
2022/03/24 04:29:13;;;;;;;;;46.50;36.00;;;;;8.83;51.24;102594.31;2444300;28;44781;-89
2022/03/24 04:30:26;;;;;;;;;44.00;34.75;;;;;8.80;51.04;102591.66;2443648;28;47191;-90
2022/03/24 04:31:36;;;;;;;;;48.75;35.75;;;;;8.80;51.15;102597.81;2443580;28;45255;-89
2022/03/24 04:32:48;;;;;;;;;47.50;36.75;;;;;8.81;51.26;102601.31;2450853;27;45480;-89
2022/03/24 04:33:59;;;;;;;;;49.50;37.00;;;;;8.77;51.17;102600.41;2450698;28;45252;-85
2022/03/24 04:35:10;;;;;;;;;45.75;36.00;;;;;8.77;51.62;102598.66;2450848;28;45417;-86
2022/03/24 04:36:20;;;;;;;;;49.50;38.00;;;;;8.74;51.49;102590.78;2442271;27;44765;-86
2022/03/24 04:37:31;;;;;;;;;45.50;36.75;;;;;8.75;51.74;102597.78;2441951;28;45334;-85
2022/03/24 04:38:41;;;;;;;;;46.75;37.50;;;;;8.73;51.17;102599.53;2449251;28;45283;-85
2022/03/24 04:39:52;;;;;;;;;46.00;36.25;;;;;8.72;51.46;102594.25;2451104;27;46416;-86
2022/03/24 04:41:02;;;;;;;;;48.75;36.75;;;;;8.73;51.48;102598.63;2441017;28;44637;-86
2022/03/24 04:42:13;;;;;;;;;49.00;37.75;;;;;8.71;52.01;102596.03;2447120;28;45264;-86
2022/03/24 04:43:23;;;;;;;;;45.50;36.25;;;;;8.70;51.54;102591.63;2451425;27;45275;-85
2022/03/24 04:44:34;;;;;;;;;47.75;39.00;;;;;8.70;51.23;102593.38;2451423;27;45231;-86
2022/03/24 04:45:45;;;;;;;;;47.75;40.00;;;;;8.69;51.42;102587.28;2447927;27;45421;-86
2022/03/24 04:46:55;;;;;;;;;45.00;36.25;;;;;8.68;51.86;102590.75;2441546;28;45234;-85
2022/03/24 04:48:05;;;;;;;;;49.50;40.50;;;;;8.68;52.11;102595.13;2441652;28;45267;-85
2022/03/24 04:49:16;;;;;;;;;45.25;37.25;;;;;8.67;51.43;102594.22;2441675;28;45483;-86
2022/03/24 04:50:27;;;;;;;;;46.75;38.25;;;;;8.67;51.69;102594.22;2444801;28;45330;-85
2022/03/24 04:51:37;;;;;;;;;51.75;40.75;;;;;8.63;51.28;102592.47;2450079;28;46236;-88
2022/03/24 04:52:48;;;;;;;;;42.00;36.50;;;;;8.64;51.50;102595.09;2441718;28;45362;-86
2022/03/24 04:53:58;;;;;;;;;43.75;36.25;;;;;8.62;51.26;102594.22;2441352;28;45366;-88
2022/03/24 04:55:09;;;;;;;;;50.50;39.00;;;;;8.62;51.92;102598.56;2441428;28;45248;-87
2022/03/24 04:56:19;;;;;;;;;49.00;39.00;;;;;8.61;52.22;102588.97;2441576;28;45322;-84
2022/03/24 04:57:30;;;;;;;;;46.25;36.50;;;;;8.63;51.93;102598.59;2445094;28;45211;-88
2022/03/24 04:58:41;;;;;;;;;50.50;39.50;;;;;8.61;51.85;102586.34;2448014;27;46455;-88
2022/03/24 04:59:51;;;;;;;;;50.25;40.00;;;;;8.58;52.33;102586.28;2441701;28;45147;-87
2022/03/24 05:01:02;;;;;;;;;49.25;40.00;;;;;8.59;51.57;102593.34;2440438;28;45983;-86
2022/03/24 05:02:15;;;;;;;;;41.00;36.00;;;;;8.58;52.07;102594.16;2440911;28;45342;-85
2022/03/24 05:03:26;;;;;;;;;49.50;37.75;;;;;8.57;51.84;102587.19;2440503;28;48324;-85
2022/03/24 05:04:36;;;;;;;;;51.75;39.25;;;;;8.57;52.21;102590.66;2440930;28;45143;-85
2022/03/24 05:05:46;;;;;;;;;52.75;40.25;;;;;8.55;52.01;102593.28;2435278;28;48194;-89
2022/03/24 05:06:58;;;;;;;;;51.75;39.75;;;;;8.55;52.22;102589.78;2433430;28;45290;-91
2022/03/24 05:08:08;;;;;;;;;44.50;37.50;;;;;8.55;52.59;102592.41;2452319;27;47242;-87
2022/03/24 05:09:19;;;;;;;;;51.25;39.00;;;;;8.55;52.43;102581.91;2449025;27;45317;-86
2022/03/24 05:10:30;;;;;;;;;49.75;37.75;;;;;8.53;51.93;102583.66;2444549;28;46929;-85
2022/03/24 05:11:40;;;;;;;;;48.00;39.25;;;;;8.52;52.32;102585.38;2443435;28;45325;-85
2022/03/24 05:12:51;;;;;;;;;45.75;36.75;;;;;8.51;52.54;102591.53;2443065;28;46968;-86
2022/03/24 05:14:01;;;;;;;;;47.50;39.25;;;;;8.51;52.54;102594.13;2443719;28;45420;-85
2022/03/24 05:15:15;;;;;;;;;42.50;37.25;;;;;8.51;52.65;102590.63;2441513;28;45418;-84
2022/03/24 05:16:26;;;;;;;;;43.50;37.00;;;;;8.50;52.64;102591.50;2455927;27;45253;-86
2022/03/24 05:17:37;;;;;;;;;49.00;39.25;;;;;8.47;52.33;102587.09;2445760;27;45351;-85
2022/03/24 05:18:47;;;;;;;;;46.75;36.00;;;;;8.47;51.92;102586.25;2441680;28;45173;-86
2022/03/24 05:19:58;;;;;;;;;47.00;37.00;;;;;8.46;52.37;102590.63;2440343;28;46866;-86
2022/03/24 05:21:08;;;;;;;;;50.50;38.25;;;;;8.46;52.50;102592.34;2449766;28;45437;-85
2022/03/24 05:22:19;;;;;;;;;44.50;36.75;;;;;8.46;52.18;102587.09;2445162;27;45346;-86
2022/03/24 05:23:30;;;;;;;;;45.50;37.00;;;;;8.46;52.48;102593.22;2441271;28;44768;-87
2022/03/24 05:24:41;;;;;;;;;52.25;40.00;;;;;8.42;52.46;102584.47;2441304;28;45624;-86
2022/03/24 05:25:52;;;;;;;;;51.50;39.25;;;;;8.42;52.42;102587.09;2442402;28;45311;-88
2022/03/24 05:27:02;;;;;;;;;47.25;37.75;;;;;8.43;52.48;102591.47;2443369;28;45222;-88